Mijn Webcam  Mijn Webcam


webcam richting noord-oost  webcam facing north-east


Regen radar Meer informatie rain snow radar


Bezoek onze andere website:

Template documentation
and downloads

HWS Template - cumulus versie

HWS Template - WU versie

And another site



METAR rapporten vliegvelden

   
EHGG - Groningen/Eelde, Netherlands
Afstand tot: Z 20 km
Gewijzigd: 11-08-2020 15:25
Gedeeltelijk bewolkt  
Gedeeltelijk bewolkt  
   Wind: Oosten 24.1 km/h
Wind: Oosten 24.1 km/h
Temperatuur: 32°C
Dauwpunt: 16°C
Vochtigheid: 38%
Barometer: 1016 hPa
Bewolking: Gedeeltelijk bewolkt
Zicht: meer dan 10 km
Bewolking: Gedeeltelijk bewolkt
EHGG 111325Z AUTO 10013KT 070V140 9999 NSC 32/16 Q1016 NOSIG
EHMA - Awg-1 Sea, Netherlands
Afstand tot: WNW 45 km
Gewijzigd: 11-08-2020 15:25
Gedeeltelijk bewolkt  
Gedeeltelijk bewolkt  
   Wind: Oosten 35.2 km/h
Wind: Oosten 35.2 km/h
Temperatuur: 24°C
Dauwpunt: 20°C
Vochtigheid: 78%
Barometer: 1016 hPa
Bewolking: Gedeeltelijk bewolkt
Zicht: meer dan 10 km
Bewolking: Gedeeltelijk bewolkt
EHMA 111325Z AUTO 08019KT 030V140 9999 NSC 24/20 Q1016
 

Script ontwikkeld door  Saratoga-weather.org Aangepast voor de template door  Weerstation Leuven

U vindt ons ook hier:

Het Weer Aktueel

UK Metoffice

European Weather Network

WeatherCloud

Weather Underground

Benelux Weer Netwerk

AWEKAS

WeatherlinkIP

HAMweather, WeatherForYou, PWS Weather

Apparatuur in gebruik:

Weerstation
Davis VP2

Weerprogramma
Cumulus

Davis VP2

Cumulus